createdAt,value
2017-04-03T00:59:22.186Z,1011.13
2017-04-03T01:01:08.464Z,1011.17
2017-04-03T01:02:44.044Z,1011.17
2017-04-03T01:04:24.916Z,1011.17
2017-04-03T22:30:01.688Z,1011.33
2017-04-03T22:30:42.141Z,1011.3
2017-04-03T22:31:27.953Z,1011.29
2017-04-03T22:32:08.430Z,1011.3
2017-04-03T22:32:48.853Z,1011.32
2017-04-03T22:35:01.556Z,1011.26
2017-04-03T22:35:42.022Z,1011.31
2017-04-03T22:36:22.508Z,1011.29
2017-04-03T22:37:03.017Z,1011.28
2017-04-03T22:37:43.528Z,1011.31
2017-04-03T22:38:23.986Z,1011.27
2017-04-03T22:39:05.143Z,1011.29
2017-04-03T22:39:45.600Z,1011.25
2017-04-03T22:40:26.059Z,1011.27
2017-04-03T22:41:06.520Z,1011.25
2017-04-03T22:41:46.936Z,1011.28
2017-04-03T22:42:27.381Z,1011.31
2017-04-03T22:43:07.831Z,1011.27
2017-04-03T22:45:25.613Z,1011.3
2017-04-03T22:46:06.123Z,1011.3
2017-04-03T22:46:48.634Z,1011.29
2017-04-03T22:47:29.127Z,1011.27
2017-04-03T22:48:09.614Z,1011.28
2017-04-03T22:48:50.084Z,1011.29
2017-04-03T22:49:30.568Z,1011.28
2017-04-03T22:50:11.055Z,1011.29
2017-04-03T22:50:51.538Z,1011.3
2017-04-03T22:51:31.979Z,1011.32
2017-04-03T22:52:12.424Z,1011.27
2017-04-03T22:54:27.629Z,1011.29
2017-04-03T22:55:08.092Z,1011.28
2017-04-03T22:55:48.598Z,1011.29
2017-04-03T22:56:29.063Z,1011.24
2017-04-03T22:57:09.495Z,1011.29
2017-04-03T22:57:49.948Z,1011.26
2017-04-03T22:58:30.461Z,1011.27
2017-04-03T23:00:28.088Z,1011.25
2017-04-03T23:01:08.588Z,1011.28
2017-04-03T23:01:49.050Z,1011.26
2017-04-03T23:02:29.499Z,1011.22
2017-04-03T23:03:09.948Z,1011.27
2017-04-03T23:03:50.445Z,1011.25
2017-04-03T23:04:30.821Z,1011.22
2017-04-03T23:05:11.254Z,1011.21
2017-04-03T23:05:51.727Z,1011.22
2017-04-03T23:07:44.348Z,1011.24
2017-04-03T23:08:24.804Z,1011.21
2017-04-03T23:09:05.321Z,1011.23
2017-04-03T23:09:45.775Z,1011.25
2017-04-03T23:10:26.236Z,1011.25
2017-04-03T23:11:06.686Z,1011.24
2017-04-03T23:11:47.164Z,1011.22
2017-04-03T23:12:27.621Z,1011.28
2017-04-03T23:13:08.100Z,1011.24
2017-04-03T23:13:48.590Z,1011.24
2017-04-03T23:14:29.053Z,1011.22
2017-04-03T23:15:09.514Z,1011.22
2017-04-03T23:15:50.015Z,1011.2
2017-04-03T23:18:18.026Z,1011.25
2017-04-03T23:18:58.543Z,1011.2
2017-04-03T23:19:39.002Z,1011.22
2017-04-03T23:20:19.531Z,1011.22
2017-04-03T23:21:00.056Z,1011.24
2017-04-03T23:21:40.639Z,1011.26
2017-04-03T23:22:21.920Z,1011.24
2017-04-03T23:23:02.657Z,1011.26
2017-04-03T23:25:00.402Z,1011.24
2017-04-03T23:25:40.937Z,1011.25
2017-04-03T23:26:21.460Z,1011.25
2017-04-03T23:27:01.967Z,1011.27
2017-04-03T23:27:42.476Z,1011.26
2017-04-03T23:28:22.962Z,1011.25
2017-04-03T23:29:03.529Z,1011.25
2017-04-03T23:29:44.058Z,1011.24
2017-04-03T23:30:24.553Z,1011.24
2017-04-03T23:31:05.069Z,1011.23
2017-04-03T23:31:45.538Z,1011.22
2017-04-03T23:32:26.000Z,1011.24
2017-04-03T23:33:06.481Z,1011.24
2017-04-03T23:34:59.557Z,1011.2
2017-04-03T23:35:42.594Z,1011.21
2017-04-03T23:36:25.538Z,1011.22
2017-04-03T23:37:06.859Z,1011.21
2017-04-03T23:37:47.423Z,1011.2
2017-04-03T23:38:28.188Z,1011.22
2017-04-03T23:50:45.844Z,1011.17
2017-04-03T23:51:26.348Z,1011.13
2017-04-03T23:52:06.861Z,1011.17
2017-04-03T23:52:47.325Z,1011.18
2017-04-03T23:55:00.082Z,1011.14
2017-04-03T23:55:40.593Z,1011.13
2017-04-03T23:56:21.107Z,1011.11
2017-04-03T23:57:01.593Z,1011.11
2017-04-03T23:57:42.075Z,1011.12
2017-04-03T23:58:22.574Z,1011.09
2017-04-03T23:59:03.070Z,1011.09
2017-04-03T23:59:43.578Z,1011.07
